Time;durP1;ratioP1;P1;durP2;ratioP2;P2;SDS_P1;SDS_P2;PMS_P1;PMS_P2;Temp;Humidity;BMP_temperature;BMP_pressure;BME280_temperature;BME280_humidity;BME280_pressure;Samples;Min_cycle;Max_cycle;Signal;HPM_P1;HPM_P2
2022/03/22 00:00:19;;;;;;;14.03;9.40;;;;;;;6.19;36.79;98456.11;1734309;81;20972;-79
2022/03/22 00:02:47;;;;;;;14.75;10.05;;;;;;;6.13;37.21;98444.89;1737671;81;21004;-79
2022/03/22 00:05:13;;;;;;;15.80;10.53;;;;;;;6.05;37.47;98456.20;1757583;81;20977;-79
2022/03/22 00:07:38;;;;;;;22.75;14.68;;;;;;;5.97;37.38;98456.70;1764250;81;21067;-79
2022/03/22 00:10:06;;;;;;;28.38;18.32;;;;;;;5.83;37.90;98463.20;1755691;81;21022;-79
2022/03/22 00:12:32;;;;;;;29.35;18.62;;;;;;;5.65;38.29;98464.78;1745715;81;21005;-79
2022/03/22 00:14:59;;;;;;;27.98;18.45;;;;;;;5.51;38.81;98459.69;1743786;81;20981;-79
2022/03/22 00:17:25;;;;;;;24.72;16.60;;;;;;;5.37;39.22;98467.05;1746959;82;20928;-79
2022/03/22 00:19:51;;;;;;;29.45;17.07;;;;;;;5.23;39.86;98470.14;1751929;81;20961;-79
2022/03/22 00:22:16;;;;;;;27.45;17.32;;;;;;;5.08;39.58;98473.22;1752080;81;21013;-79
2022/03/22 00:24:42;;;;;;;29.23;17.52;;;;;;;4.96;39.34;98470.94;1750921;81;21025;-79
2022/03/22 00:27:08;;;;;;;20.65;14.07;;;;;;;4.87;39.99;98475.81;1745461;81;21432;-78
2022/03/22 00:29:34;;;;;;;23.27;13.93;;;;;;;4.75;40.94;98481.29;1740460;81;21407;-79
2022/03/22 00:32:00;;;;;;;21.07;13.95;;;;;;;4.61;41.28;98480.84;1729675;83;20961;-78
2022/03/22 00:34:25;;;;;;;27.05;16.70;;;;;;;4.46;41.40;98475.33;1736814;81;20977;-78
2022/03/22 00:36:52;;;;;;;19.17;13.25;;;;;;;4.39;41.13;98470.16;1734142;82;21008;-78
2022/03/22 00:39:18;;;;;;;23.98;15.95;;;;;;;4.30;42.70;98482.31;1743394;81;21020;-79
2022/03/22 00:41:44;;;;;;;19.62;13.22;;;;;;;4.17;42.03;98478.34;1706678;81;20957;-79
2022/03/22 00:44:10;;;;;;;20.15;11.85;;;;;;;4.06;42.71;98475.10;1765245;80;20949;-79
2022/03/22 00:46:37;;;;;;;20.30;13.00;;;;;;;3.96;42.87;98474.00;1756234;81;20965;-79
2022/03/22 00:49:03;;;;;;;21.55;14.13;;;;;;;3.88;42.60;98466.72;1749054;81;21331;-79
2022/03/22 00:51:30;;;;;;;22.45;15.25;;;;;;;3.81;43.88;98466.72;1746176;81;20955;-79
2022/03/22 00:53:59;;;;;;;25.70;15.28;;;;;;;3.71;44.29;98460.89;1749199;81;20941;-78
2022/03/22 00:56:24;;;;;;;25.17;15.25;;;;;;;3.63;44.24;98464.38;1746131;82;20948;-79
2022/03/22 01:00:01;;;;;;;21.10;14.00;;;;;;;3.56;44.05;98462.59;1749277;81;21320;-79
2022/03/22 01:01:18;;;;;;;19.30;13.05;;;;;;;3.48;44.47;98455.34;1746758;82;21486;-79
2022/03/22 01:03:44;;;;;;;16.10;10.60;;;;;;;3.42;44.71;98454.41;1739727;82;21005;-79
2022/03/22 01:06:09;;;;;;;12.88;10.03;;;;;;;3.38;44.96;98458.05;1749344;81;20953;-78
2022/03/22 01:08:37;;;;;;;17.07;10.20;;;;;;;3.32;44.39;98449.41;1767227;81;21052;-78
2022/03/22 01:11:03;;;;;;;15.43;10.72;;;;;;;3.29;44.52;98449.58;1767415;81;21024;-78
2022/03/22 01:13:29;;;;;;;15.18;9.78;;;;;;;3.25;45.12;98438.66;1688450;84;21037;-79
2022/03/22 01:15:54;;;;;;;11.35;9.25;;;;;;;3.23;45.11;98441.73;1756100;81;21016;-79
2022/03/22 01:18:25;;;;;;;11.25;8.68;;;;;;;3.19;45.13;98442.00;1735293;83;20969;-79
2022/03/22 01:20:49;;;;;;;11.93;8.60;;;;;;;3.15;45.44;98439.24;1737163;81;20933;-79
2022/03/22 01:23:15;;;;;;;10.90;7.83;;;;;;;3.11;45.55;98438.59;1737036;81;20949;-79
2022/03/22 01:25:41;;;;;;;10.60;8.28;;;;;;;3.07;45.88;98437.08;1740294;81;21327;-79
2022/03/22 01:28:08;;;;;;;11.10;7.75;;;;;;;3.04;45.77;98437.72;1767186;81;20949;-79
2022/03/22 01:30:35;;;;;;;9.88;7.37;;;;;;;3.02;45.96;98445.51;1767515;81;21095;-78
2022/03/22 01:33:01;;;;;;;9.40;7.10;;;;;;;2.99;45.73;98441.38;1767113;81;21045;-78
2022/03/22 01:35:27;;;;;;;10.80;7.45;;;;;;;2.96;45.31;98440.27;1767383;81;21005;-78
2022/03/22 01:37:54;;;;;;;9.70;7.60;;;;;;;2.94;45.33;98442.09;1764740;81;21750;-78
2022/03/22 01:40:21;;;;;;;10.45;7.30;;;;;;;2.94;45.35;98441.27;1760004;81;20930;-78
2022/03/22 01:42:47;;;;;;;12.07;8.18;;;;;;;2.91;45.33;98440.95;1764714;81;20941;-78
2022/03/22 01:45:13;;;;;;;9.75;7.50;;;;;;;2.92;45.09;98443.88;1764080;81;21383;-79
2022/03/22 01:47:40;;;;;;;10.95;6.92;;;;;;;2.94;45.01;98443.83;1745471;81;21028;-79
2022/03/22 01:50:09;;;;;;;10.72;7.62;;;;;;;2.94;45.21;98440.80;1736976;83;21415;-79
2022/03/22 01:52:36;;;;;;;8.95;7.37;;;;;;;2.94;45.04;98433.56;1751033;80;20992;-78
2022/03/22 01:55:03;;;;;;;10.90;7.78;;;;;;;2.94;45.39;98442.09;1766881;81;21386;-79
2022/03/22 01:57:30;;;;;;;10.00;7.00;;;;;;;2.92;45.93;98438.75;1767400;81;21096;-78
2022/03/22 01:59:56;;;;;;;11.35;7.17;;;;;;;2.91;45.74;98437.09;1767030;81;21076;-79
2022/03/22 02:07:53;;;;;;;9.45;6.92;;;;;;;2.84;45.45;98433.22;1736312;82;21466;-79
2022/03/22 02:10:19;;;;;;;9.03;6.60;;;;;;;2.82;45.04;98431.20;1752648;81;21035;-78
2022/03/22 02:12:46;;;;;;;10.13;7.12;;;;;;;2.83;45.72;98426.89;1750410;81;21020;-78
2022/03/22 02:15:13;;;;;;;10.82;7.40;;;;;;;2.82;45.16;98431.20;1736684;82;21340;-78
2022/03/22 02:17:40;;;;;;;8.45;7.47;;;;;;;2.81;45.11;98425.69;1737071;83;20945;-78
2022/03/22 02:20:09;;;;;;;9.98;6.70;;;;;;;2.80;45.61;98425.32;1736984;82;20985;-78
2022/03/22 02:22:53;;;;;;;8.60;6.17;;;;;;;2.77;46.02;98426.78;1752408;81;20963;-78
2022/03/22 02:25:19;;;;;;;9.33;7.08;;;;;;;2.73;46.56;98431.68;1752580;82;20964;-78
2022/03/22 02:27:47;;;;;;;7.78;5.75;;;;;;;2.69;47.09;98425.06;1752544;82;21014;-79
2022/03/22 02:30:14;;;;;;;8.98;6.35;;;;;;;2.66;46.93;98429.08;1766727;81;20937;-79
2022/03/22 02:32:40;;;;;;;9.48;7.15;;;;;;;2.65;46.97;98431.28;1767261;81;21087;-79
2022/03/22 02:35:07;;;;;;;11.85;7.22;;;;;;;2.63;47.57;98427.52;1752356;81;20941;-78
2022/03/22 02:37:34;;;;;;;10.53;6.53;;;;;;;2.61;47.88;98426.77;1767267;81;21438;-78
2022/03/22 02:40:00;;;;;;;7.95;6.03;;;;;;;2.61;47.57;98420.81;1722860;81;21095;-78
2022/03/22 02:42:27;;;;;;;9.85;6.62;;;;;;;2.61;47.90;98422.09;1759454;81;21065;-78
2022/03/22 02:44:52;;;;;;;8.90;6.35;;;;;;;2.59;48.30;98426.00;1761750;81;20976;-78
2022/03/22 02:47:19;;;;;;;9.78;7.25;;;;;;;2.57;47.79;98423.97;1764532;81;21336;-79
2022/03/22 02:49:44;;;;;;;8.60;6.58;;;;;;;2.57;47.83;98420.58;1763907;81;20933;-78
2022/03/22 02:52:10;;;;;;;9.63;6.47;;;;;;;2.56;48.07;98422.77;1761403;80;20985;-79
2022/03/22 02:54:36;;;;;;;8.88;6.75;;;;;;;2.55;48.01;98419.84;1748661;81;20995;-78
2022/03/22 02:57:01;;;;;;;8.10;6.00;;;;;;;2.56;48.38;98424.06;1763681;81;20964;-79
2022/03/22 02:59:27;;;;;;;9.55;7.00;;;;;;;2.55;48.22;98423.69;1684219;84;21319;-78
2022/03/22 03:01:54;;;;;;;10.05;6.75;;;;;;;2.55;48.29;98423.23;1758636;81;21455;-78
2022/03/22 03:04:20;;;;;;;10.25;6.35;;;;;;;2.57;48.14;98425.26;1741420;82;20970;-78
2022/03/22 03:06:46;;;;;;;8.63;6.67;;;;;;;2.58;48.49;98423.52;1753961;81;21313;-78
2022/03/22 03:09:12;;;;;;;8.13;5.80;;;;;;;2.58;48.73;98426.91;1764230;81;21017;-78
2022/03/22 03:11:37;;;;;;;9.65;6.10;;;;;;;2.56;48.90;98427.45;1764363;81;20949;-78
2022/03/22 03:16:48;;;;;;;9.18;5.92;;;;;;;2.57;48.51;98430.39;1764158;81;21061;-78
2022/03/22 03:19:14;;;;;;;8.58;5.92;;;;;;;2.58;48.45;98442.31;1745316;81;21412;-78
2022/03/22 03:21:40;;;;;;;8.68;6.95;;;;;;;2.58;48.36;98438.46;1764588;81;20989;-78
2022/03/22 03:24:05;;;;;;;7.78;6.65;;;;;;;2.62;48.00;98448.13;1764270;81;21470;-78
2022/03/22 03:26:31;;;;;;;8.08;5.87;;;;;;;2.65;48.65;98449.25;1764500;81;21309;-78
2022/03/22 03:28:57;;;;;;;8.28;5.58;;;;;;;2.62;48.54;98443.83;1764290;81;21009;-78
2022/03/22 03:31:23;;;;;;;7.47;5.40;;;;;;;2.61;48.57;98447.30;1764434;81;21023;-78
2022/03/22 03:33:49;;;;;;;8.60;6.50;;;;;;;2.61;48.44;98444.73;1751723;81;21039;-78
2022/03/22 03:36:15;;;;;;;6.53;4.97;;;;;;;2.60;48.51;98452.06;1734166;83;21014;-79
2022/03/22 03:38:43;;;;;;;7.50;5.05;;;;;;;2.59;48.53;98452.95;1764094;81;21438;-78
2022/03/22 03:43:54;;;;;;;8.48;6.08;;;;;;;2.60;47.87;98450.78;1764451;81;20981;-78
2022/03/22 03:49:06;;;;;;;9.05;6.28;;;;;;;2.61;47.28;98453.72;1735275;81;20988;-78
2022/03/22 03:51:36;;;;;;;8.20;6.33;;;;;;;2.58;47.55;98450.02;1737213;80;20981;-78
2022/03/22 03:54:03;;;;;;;8.53;6.67;;;;;;;2.54;47.84;98447.24;1736624;81;20937;-78
2022/03/22 03:56:29;;;;;;;9.60;6.20;;;;;;;2.51;47.78;98452.54;1764247;81;20965;-78
2022/03/22 03:58:57;;;;;;;6.97;5.28;;;;;;;2.49;48.11;98450.52;1686625;84;20992;-78
2022/03/22 04:01:22;;;;;;;7.83;5.65;;;;;;;2.45;48.41;98454.61;1763842;81;21411;-78
2022/03/22 04:03:48;;;;;;;7.80;5.58;;;;;;;2.41;48.94;98453.92;1746163;81;21019;-78
2022/03/22 04:06:14;;;;;;;6.95;5.45;;;;;;;2.38;49.21;98452.80;1764369;81;21032;-78
2022/03/22 04:08:40;;;;;;;8.40;6.08;;;;;;;2.36;49.37;98458.02;1764062;81;21005;-78
2022/03/22 04:11:06;;;;;;;9.98;6.53;;;;;;;2.34;49.56;98459.02;1764510;81;20930;-78
2022/03/22 04:13:31;;;;;;;6.62;5.60;;;;;;;2.33;49.71;98458.64;1753135;81;21032;-78
2022/03/22 04:15:58;;;;;;;7.62;5.40;;;;;;;2.32;49.53;98460.38;1760810;81;20997;-78
2022/03/22 04:18:24;;;;;;;8.15;5.80;;;;;;;2.31;49.60;98460.00;1747095;81;21020;-78
2022/03/22 04:20:51;;;;;;;7.05;5.90;;;;;;;2.27;49.37;98463.61;1754358;81;20936;-78
2022/03/22 04:23:16;;;;;;;7.03;5.85;;;;;;;2.23;49.29;98464.69;1682379;85;22112;-78
2022/03/22 04:25:42;;;;;;;8.00;6.30;;;;;;;2.24;49.25;98464.23;1730436;81;20944;-78
2022/03/22 04:33:36;;;;;;;8.48;6.25;;;;;;;2.20;49.79;98462.28;1744455;81;20993;-78
2022/03/22 04:36:03;;;;;;;8.03;5.78;;;;;;;2.17;49.90;98462.45;1749947;81;20948;-78
2022/03/22 04:38:29;;;;;;;8.10;6.65;;;;;;;2.17;49.97;98469.31;1745879;81;20980;-78
2022/03/22 04:40:54;;;;;;;7.70;6.17;;;;;;;2.17;50.01;98460.34;1747322;81;21020;-78
2022/03/22 04:43:21;;;;;;;9.35;6.75;;;;;;;2.16;50.01;98464.64;1739623;81;20982;-78
2022/03/22 04:45:46;;;;;;;7.95;5.97;;;;;;;2.18;49.85;98467.13;1752594;81;20949;-78
2022/03/22 04:48:13;;;;;;;8.18;5.70;;;;;;;2.19;49.85;98462.37;1760605;81;20977;-78
2022/03/22 04:50:39;;;;;;;8.83;6.40;;;;;;;2.19;49.75;98467.04;1753696;81;21316;-78
2022/03/22 04:58:34;;;;;;;7.70;5.58;;;;;;;2.24;49.16;98475.77;1721171;83;21027;-78
2022/03/22 05:00:59;;;;;;;9.50;7.35;;;;;;;2.26;48.88;98473.50;1739613;81;21352;-78
2022/03/22 05:03:25;;;;;;;7.90;6.15;;;;;;;2.31;48.87;98475.40;1760861;81;20964;-78
2022/03/22 05:08:35;;;;;;;7.35;5.80;;;;;;;2.35;49.11;98482.47;1761841;81;20997;-78
2022/03/22 05:11:01;;;;;;;8.83;6.33;;;;;;;2.35;49.30;98474.78;1759926;81;21344;-79
2022/03/22 05:13:26;;;;;;;7.87;6.28;;;;;;;2.35;49.24;98468.36;1734299;82;20955;-78
2022/03/22 05:15:52;;;;;;;8.95;5.85;;;;;;;2.35;49.49;98475.60;1741241;81;20937;-78
2022/03/22 05:18:20;;;;;;;9.55;5.70;;;;;;;2.34;49.65;98475.23;1757622;81;21020;-78
2022/03/22 05:20:46;;;;;;;6.95;5.67;;;;;;;2.33;49.97;98481.27;1750620;81;20988;-78
2022/03/22 05:23:12;;;;;;;7.10;5.90;;;;;;;2.34;50.28;98479.53;1750399;81;20957;-78
2022/03/22 05:25:38;;;;;;;10.72;6.97;;;;;;;2.33;50.46;98483.84;1749253;81;21332;-78
2022/03/22 05:28:04;;;;;;;8.90;6.65;;;;;;;2.32;50.70;98489.88;1745713;81;20995;-78
2022/03/22 05:30:31;;;;;;;7.78;6.70;;;;;;;2.30;50.93;98490.41;1744617;81;20964;-78
2022/03/22 05:32:56;;;;;;;8.13;6.12;;;;;;;2.30;50.90;98487.85;1747028;81;20918;-78
2022/03/22 05:35:23;;;;;;;7.53;5.47;;;;;;;2.32;50.99;98484.75;1746053;81;22162;-79
2022/03/22 05:37:51;;;;;;;7.87;5.62;;;;;;;2.34;50.98;98488.52;1750577;81;21016;-78
2022/03/22 05:40:17;;;;;;;8.18;6.55;;;;;;;2.36;50.89;98485.41;1724866;81;21020;-78
2022/03/22 05:42:43;;;;;;;10.25;6.58;;;;;;;2.39;50.75;98484.80;1708598;84;20972;-78
2022/03/22 05:45:11;;;;;;;8.25;6.42;;;;;;;2.41;50.95;98479.13;1708092;83;21448;-78
2022/03/22 05:47:36;;;;;;;8.05;6.12;;;;;;;2.43;51.03;98489.76;1708305;84;20984;-78
2022/03/22 05:50:05;;;;;;;7.92;6.37;;;;;;;2.44;50.97;98489.71;1709918;84;20979;-78
2022/03/22 05:52:30;;;;;;;7.03;6.30;;;;;;;2.46;51.01;98490.91;1688354;83;21056;-78
2022/03/22 05:54:56;;;;;;;7.75;6.20;;;;;;;2.50;50.91;98492.40;1707000;84;21408;-78
2022/03/22 05:57:22;;;;;;;8.98;6.05;;;;;;;2.54;51.12;98499.02;1687673;84;21059;-78
2022/03/22 05:59:48;;;;;;;9.03;6.37;;;;;;;2.57;51.00;98499.69;1708819;84;20944;-78
2022/03/22 06:02:13;;;;;;;7.65;6.00;;;;;;;2.61;50.86;98501.20;1709096;84;21345;-78
2022/03/22 06:04:39;;;;;;;9.85;6.15;;;;;;;2.66;50.72;98502.23;1706517;84;21032;-78
2022/03/22 06:07:05;;;;;;;8.75;6.33;;;;;;;2.70;50.63;98503.27;1707114;83;21375;-78
2022/03/22 06:09:31;;;;;;;8.05;6.10;;;;;;;2.75;50.43;98501.73;1709290;84;21048;-78
2022/03/22 06:11:56;;;;;;;7.95;6.20;;;;;;;2.80;50.07;98510.05;1708828;84;20949;-78
2022/03/22 06:14:22;;;;;;;9.25;6.33;;;;;;;2.85;49.80;98507.22;1708366;84;21315;-78
2022/03/22 06:16:48;;;;;;;8.55;6.35;;;;;;;2.91;49.51;98512.02;1706317;83;21011;-78
2022/03/22 06:19:14;;;;;;;11.70;6.60;;;;;;;2.97;49.75;98522.81;1709727;84;20959;-78
2022/03/22 06:21:40;;;;;;;8.03;5.80;;;;;;;2.99;49.78;98510.71;1704182;84;21374;-78
2022/03/22 06:24:06;;;;;;;9.93;6.40;;;;;;;3.04;50.04;98519.91;1708021;84;20952;-78
2022/03/22 06:26:32;;;;;;;7.20;6.42;;;;;;;3.08;49.89;98518.81;1707630;84;20988;-78
2022/03/22 06:29:00;;;;;;;8.48;6.25;;;;;;;3.14;49.87;98512.08;1703563;84;20984;-78
2022/03/22 06:31:27;;;;;;;8.00;7.20;;;;;;;3.21;50.27;98511.65;1708311;84;21047;-78
2022/03/22 06:33:53;;;;;;;8.88;6.35;;;;;;;3.29;49.88;98513.81;1697838;84;21067;-78
2022/03/22 06:36:19;;;;;;;7.85;5.87;;;;;;;3.38;50.51;98515.03;1672308;84;21028;-79
2022/03/22 06:38:45;;;;;;;7.22;5.35;;;;;;;3.46;50.33;98516.28;1696692;84;20985;-79
2022/03/22 06:41:10;;;;;;;8.23;6.15;;;;;;;3.55;50.69;98514.92;1706414;82;21098;-79
2022/03/22 06:43:37;;;;;;;7.37;5.90;;;;;;;3.63;50.38;98520.48;1734291;83;21057;-79
2022/03/22 06:46:02;;;;;;;10.63;6.28;;;;;;;3.72;49.46;98516.55;1754812;81;20945;-79
2022/03/22 06:48:28;;;;;;;8.10;6.10;;;;;;;3.81;49.56;98516.03;1714600;83;20988;-79
2022/03/22 06:50:54;;;;;;;7.25;5.80;;;;;;;3.91;50.09;98524.89;1681231;84;21077;-79
2022/03/22 06:53:20;;;;;;;10.55;6.62;;;;;;;3.96;50.23;98524.63;1685802;84;21401;-78
2022/03/22 06:55:47;;;;;;;10.68;8.20;;;;;;;4.04;50.23;98524.99;1672381;84;20993;-78
2022/03/22 06:58:16;;;;;;;22.65;13.43;;;;;;;4.11;49.74;98525.85;1756670;81;20980;-78
2022/03/22 07:00:41;;;;;;;10.18;7.58;;;;;;;4.22;48.46;98525.20;1748363;81;20961;-78
2022/03/22 07:03:07;;;;;;;9.45;6.50;;;;;;;4.36;48.79;98531.66;1674213;83;22401;-78
2022/03/22 07:05:33;;;;;;;11.35;6.92;;;;;;;4.47;48.78;98523.31;1752435;81;20983;-78
2022/03/22 07:07:59;;;;;;;10.10;7.37;;;;;;;4.58;48.38;98527.38;1740410;81;21013;-78
2022/03/22 07:10:25;;;;;;;10.80;7.30;;;;;;;4.68;48.28;98529.74;1755159;81;21040;-78
2022/03/22 07:12:57;;;;;;;14.98;11.53;;;;;;;4.77;48.23;98529.20;1685267;83;20977;-78
2022/03/22 07:15:29;;;;;;;13.35;9.25;;;;;;;4.90;48.51;98533.61;1756291;81;21355;-78
2022/03/22 07:17:57;;;;;;;;;;;;;;;5.02;47.89;98531.09;1753782;81;21427;-76
2022/03/22 07:20:23;;;;;;;11.20;8.18;;;;;;;5.13;47.51;98533.02;1746212;81;20136;-78
2022/03/22 07:22:49;;;;;;;20.17;14.13;;;;;;;5.25;47.76;98539.99;1751640;81;20950;-79
2022/03/22 07:25:14;;;;;;;14.18;10.85;;;;;;;5.35;47.27;98534.61;1737761;81;21020;-78
2022/03/22 07:27:40;;;;;;;17.23;12.90;;;;;;;5.49;47.11;98534.20;1747873;81;21056;-79
2022/03/22 07:30:10;;;;;;;17.30;12.07;;;;;;;5.65;47.35;98528.43;1754042;81;21067;-78
2022/03/22 07:32:35;;;;;;;20.70;14.13;;;;;;;5.81;47.75;98533.43;1739635;81;22058;-79
2022/03/22 07:35:01;;;;;;;23.85;15.45;;;;;;;5.95;47.14;98529.06;1754874;81;20983;-79
2022/03/22 07:37:30;;;;;;;22.77;14.38;;;;;;;6.09;46.85;98533.32;1684575;83;21012;-81
2022/03/22 07:39:58;;;;;;;14.80;10.78;;;;;;;6.26;47.70;98536.91;1757527;81;21047;-78
2022/03/22 07:42:27;;;;;;;22.05;15.53;;;;;;;6.41;47.90;98533.77;1763375;81;20960;-78
2022/03/22 07:45:00;;;;;;;24.02;15.90;;;;;;;6.56;47.30;98535.78;1761452;81;21015;-78
2022/03/22 07:47:26;;;;;;;22.98;16.30;;;;;;;6.71;46.92;98535.20;1756392;81;21305;-78
2022/03/22 07:55:21;;;;;;;26.97;18.07;;;;;;;7.13;46.64;98549.48;1757383;81;21438;-79
2022/03/22 07:57:47;;;;;;;27.62;18.30;;;;;;;7.28;46.22;98543.24;1757907;81;21009;-78
2022/03/22 08:00:14;;;;;;;32.30;20.02;;;;;;;7.43;45.13;98541.33;1752994;81;21025;-79
2022/03/22 08:02:57;;;;;;;27.35;19.32;;;;;;;7.58;44.98;98540.23;1745817;81;20902;-79
2022/03/22 08:05:23;;;;;;;29.98;20.72;;;;;;;7.70;44.67;98544.53;1748951;81;20941;-79
2022/03/22 08:07:50;;;;;;;31.33;21.87;;;;;;;7.88;44.71;98546.73;1756262;81;21367;-78
2022/03/22 08:10:17;;;;;;;30.97;21.82;;;;;;;7.98;43.81;98539.48;1757598;81;20988;-79
2022/03/22 08:12:43;;;;;;;35.92;23.07;;;;;;;8.08;43.88;98538.31;1755033;81;20980;-78
2022/03/22 08:15:09;;;;;;;39.10;26.17;;;;;;;8.17;44.03;98538.94;1743573;81;20984;-78
2022/03/22 08:17:37;;;;;;;37.35;23.52;;;;;;;8.30;43.80;98541.45;1754216;81;20933;-79
2022/03/22 08:20:07;;;;;;;34.43;23.70;;;;;;;8.42;42.94;98537.95;1752787;81;21028;-79
2022/03/22 08:22:50;;;;;;;37.83;23.80;;;;;;;8.56;43.41;98543.39;1746372;81;21019;-82
2022/03/22 08:25:27;;;;;;;35.85;22.60;;;;;;;8.68;42.35;98534.69;1750648;81;21087;-79
2022/03/22 08:27:56;;;;;;;28.92;18.90;;;;;;;8.78;41.61;98533.49;1763725;81;21052;-78
2022/03/22 08:30:22;;;;;;;30.32;19.77;;;;;;;8.88;41.57;98538.34;1759169;81;20925;-79
2022/03/22 08:32:53;;;;;;;26.30;17.65;;;;;;;8.97;41.19;98538.47;1733045;81;21028;-79
2022/03/22 08:35:19;;;;;;;26.27;18.17;;;;;;;9.06;40.95;98545.98;1743723;81;21321;-79
2022/03/22 08:37:45;;;;;;;25.40;15.85;;;;;;;9.20;40.69;98541.02;1737130;81;21324;-79
2022/03/22 08:40:18;;;;;;;23.70;16.87;;;;;;;9.27;39.24;98542.17;1741598;81;20997;-79
2022/03/22 08:42:46;;;;;;;24.45;16.70;;;;;;;9.32;39.18;98546.55;1737753;81;21367;-80
2022/03/22 08:45:18;;;;;;;21.85;13.85;;;;;;;9.38;38.56;98539.57;1760286;81;21307;-79
2022/03/22 08:47:45;;;;;;;;;;;;;;;9.47;37.85;98541.92;1751290;81;20972;-79
2022/03/22 08:50:14;;;;;;;21.93;15.38;;;;;;;9.51;37.88;98542.02;1747835;82;20113;-79
2022/03/22 08:52:40;;;;;;;23.20;15.08;;;;;;;9.54;38.07;98536.11;1750706;81;20976;-79
2022/03/22 08:55:07;;;;;;;24.32;18.12;;;;;;;9.60;37.88;98535.63;1724122;82;20945;-81
2022/03/22 08:57:35;;;;;;;24.40;17.77;;;;;;;9.66;38.32;98529.59;1746374;81;20961;-79
2022/03/22 09:00:01;;;;;;;24.80;16.27;;;;;;;9.73;38.12;98526.84;1747327;81;21388;-79
2022/03/22 09:02:27;;;;;;;24.92;17.55;;;;;;;9.83;37.41;98529.87;1754999;81;21024;-79
2022/03/22 09:07:37;;;;;;;24.35;16.85;;;;;;;9.95;36.83;98519.45;1735390;83;21153;-79
2022/03/22 09:10:03;;;;;;;22.27;15.80;;;;;;;10.01;37.64;98523.66;1735219;83;21067;-79
2022/03/22 09:12:29;;;;;;;21.48;14.50;;;;;;;10.14;37.63;98522.17;1650806;86;21279;-79
2022/03/22 09:14:54;;;;;;;20.37;15.45;;;;;;;10.30;36.87;98521.28;1660906;85;21056;-79
2022/03/22 09:17:20;;;;;;;25.82;18.65;;;;;;;10.35;36.47;98518.30;1681016;84;21004;-79
2022/03/22 09:19:46;;;;;;;22.87;17.15;;;;;;;10.42;36.90;98525.47;1661070;85;21383;-79
2022/03/22 09:22:14;;;;;;;23.98;17.37;;;;;;;10.51;37.36;98520.78;1681666;85;21028;-79
2022/03/22 09:24:40;;;;;;;24.37;17.50;;;;;;;10.59;36.02;98518.85;1736085;83;21359;-79
2022/03/22 09:27:07;;;;;;;23.02;16.37;;;;;;;10.64;36.14;98515.85;1736166;83;21064;-79
2022/03/22 09:29:33;;;;;;;25.17;15.75;;;;;;;10.73;36.38;98515.05;1659679;85;22015;-79
2022/03/22 09:31:59;;;;;;;24.50;18.00;;;;;;;10.79;35.41;98513.25;1733669;83;21035;-79
2022/03/22 09:34:25;;;;;;;19.32;12.80;;;;;;;10.83;36.01;98516.75;1736168;81;20937;-79
2022/03/22 09:36:52;;;;;;;25.23;19.70;;;;;;;10.97;36.15;98514.75;1736386;83;21005;-78
2022/03/22 09:39:19;;;;;;;20.48;15.25;;;;;;;11.06;35.61;98513.49;1736214;82;21008;-79
2022/03/22 09:41:49;;;;;;;31.48;20.08;;;;;;;11.09;34.27;98518.42;1736003;82;21028;-79
2022/03/22 09:44:18;;;;;;;30.48;19.55;;;;;;;11.15;35.64;98507.95;1736255;83;21072;-79
2022/03/22 09:46:48;;;;;;;29.52;19.35;;;;;;;11.18;34.48;98506.86;1736076;82;21087;-79
2022/03/22 09:49:16;;;;;;;27.52;20.12;;;;;;;11.20;35.22;98503.64;1736194;81;22008;-79
2022/03/22 09:51:47;;;;;;;27.60;19.73;;;;;;;11.25;35.50;98502.30;1736162;82;20985;-79
2022/03/22 09:54:15;;;;;;;27.87;20.43;;;;;;;11.35;35.91;98495.80;1736530;82;20996;-79
2022/03/22 09:56:42;;;;;;;33.67;22.25;;;;;;;11.46;34.57;98494.86;1736301;81;21743;-79
2022/03/22 09:59:08;;;;;;;30.68;22.93;;;;;;;11.53;35.13;98497.25;1736756;81;21360;-80
2022/03/22 10:01:34;;;;;;;31.45;21.85;;;;;;;11.59;34.89;98492.34;1736987;81;21036;-79
2022/03/22 10:04:06;;;;;;;30.72;22.00;;;;;;;11.65;34.94;98498.77;1739822;81;21075;-79
2022/03/22 10:06:32;;;;;;;25.72;21.65;;;;;;;11.79;35.43;98489.28;1750568;81;20968;-79
2022/03/22 10:08:59;;;;;;;28.42;21.07;;;;;;;11.90;35.25;98495.66;1766099;81;20988;-79
2022/03/22 10:11:36;;;;;;;26.48;20.02;;;;;;;11.99;35.14;98491.38;1765973;81;21418;-79
2022/03/22 10:14:02;;;;;;;28.57;19.82;;;;;;;12.08;34.85;98491.05;1766325;81;21112;-79
2022/03/22 10:16:28;;;;;;;25.92;18.57;;;;;;;12.13;34.80;98491.44;1687078;85;21044;-79
2022/03/22 10:18:54;;;;;;;27.70;19.55;;;;;;;12.13;34.54;98491.44;1764505;81;21407;-79
2022/03/22 10:21:20;;;;;;;27.00;19.42;;;;;;;12.12;33.30;98485.88;1755254;81;21051;-79
2022/03/22 10:23:54;;;;;;;28.80;20.25;;;;;;;12.15;34.25;98492.11;1737228;82;20981;-79
2022/03/22 10:26:20;;;;;;;27.00;21.07;;;;;;;12.21;33.90;98489.79;1747877;82;21379;-80
2022/03/22 10:28:54;;;;;;;25.88;19.00;;;;;;;12.29;33.44;98485.98;1748561;81;20961;-80
2022/03/22 10:31:20;;;;;;;27.40;18.40;;;;;;;12.30;33.80;98488.11;1748712;82;21269;-79
2022/03/22 10:33:53;;;;;;;24.47;17.50;;;;;;;12.39;33.65;98490.36;1741876;81;20965;-79
2022/03/22 10:36:21;;;;;;;22.07;16.50;;;;;;;12.47;33.92;98484.77;1734395;83;21011;-79
2022/03/22 10:38:59;;;;;;;28.00;18.40;;;;;;;12.56;33.12;98493.05;1734103;83;20980;-79
2022/03/22 10:41:29;;;;;;;22.17;17.52;;;;;;;12.58;32.75;98486.38;1734334;82;21079;-79
2022/03/22 10:44:14;;;;;;;21.93;17.75;;;;;;;12.54;32.82;98482.42;1737581;81;21064;-79
2022/03/22 10:46:42;;;;;;;22.85;17.25;;;;;;;12.56;32.88;98485.23;1759569;81;21010;-79
2022/03/22 10:49:10;;;;;;;26.37;18.20;;;;;;;12.61;33.05;98482.18;1736463;81;20994;-80
2022/03/22 10:51:44;;;;;;;24.27;17.17;;;;;;;12.66;32.82;98481.26;1758647;81;20988;-79
2022/03/22 10:54:12;;;;;;;23.15;16.55;;;;;;;12.68;32.67;98477.20;1752015;81;20945;-79
2022/03/22 10:56:51;;;;;;;22.80;17.52;;;;;;;12.68;31.95;98477.20;1747139;82;20933;-79
2022/03/22 10:59:19;;;;;;;20.68;16.70;;;;;;;12.66;31.35;98470.00;1745439;82;21084;-79
2022/03/22 11:01:46;;;;;;;20.35;14.85;;;;;;;12.67;31.91;98468.55;1746205;82;21000;-79
2022/03/22 11:04:16;;;;;;;23.27;16.35;;;;;;;12.75;31.96;98473.06;1748894;81;21012;-79
2022/03/22 11:06:47;;;;;;;22.58;15.53;;;;;;;12.82;31.81;98466.30;1748620;81;21363;-79
2022/03/22 11:09:20;;;;;;;22.95;16.48;;;;;;;12.88;31.53;98463.13;1746745;82;21379;-79
2022/03/22 11:11:46;;;;;;;20.92;16.12;;;;;;;13.02;31.75;98465.25;1747988;81;21020;-79
2022/03/22 11:14:15;;;;;;;21.73;16.50;;;;;;;13.13;31.79;98458.50;1745360;82;21354;-79
2022/03/22 11:16:41;;;;;;;21.45;16.60;;;;;;;13.17;31.71;98458.53;1748458;81;20960;-79
2022/03/22 11:19:07;;;;;;;21.05;15.18;;;;;;;13.20;31.49;98449.16;1747956;81;20968;-80
2022/03/22 11:21:33;;;;;;;21.87;16.35;;;;;;;13.27;32.03;98449.86;1752239;81;21008;-79
2022/03/22 11:24:07;;;;;;;20.30;14.85;;;;;;;13.30;31.23;98446.95;1766462;81;20996;-79
2022/03/22 11:26:43;;;;;;;17.05;12.00;;;;;;;13.29;30.78;98444.82;1766288;81;20997;-80
2022/03/22 11:29:13;;;;;;;18.98;15.20;;;;;;;13.26;29.56;98440.39;1754445;81;21037;-79
2022/03/22 11:31:41;;;;;;;20.92;15.50;;;;;;;13.28;30.98;98437.96;1758220;81;21182;-80
2022/03/22 11:34:10;;;;;;;19.85;14.85;;;;;;;13.33;31.60;98435.72;1757047;81;21039;-79
2022/03/22 11:36:49;;;;;;;14.58;11.88;;;;;;;13.44;31.19;98428.16;1744868;81;20925;-79
2022/03/22 11:39:17;;;;;;;25.52;16.30;;;;;;;13.56;30.66;98432.67;1752754;81;21386;-79
2022/03/22 11:44:37;;;;;;;22.65;14.90;;;;;;;13.60;31.23;98428.78;1752538;81;21005;-80
2022/03/22 11:47:11;;;;;;;23.70;16.90;;;;;;;13.74;30.95;98427.76;1751886;81;21072;-79
2022/03/22 11:50:01;;;;;;;19.90;15.30;;;;;;;13.79;31.26;98418.97;1755189;81;21158;-79
2022/03/22 11:52:40;;;;;;;21.77;16.93;;;;;;;13.88;31.14;98417.73;1678535;85;21003;-79
2022/03/22 11:55:22;;;;;;;20.12;15.85;;;;;;;14.02;30.57;98416.70;1750826;81;21043;-79
2022/03/22 11:58:05;;;;;;;22.17;17.45;;;;;;;14.02;30.01;98411.95;1758943;81;20982;-79
2022/03/22 12:00:51;;;;;;;23.62;17.42;;;;;;;13.99;30.06;98410.93;1674362;84;20988;-80
2022/03/22 12:03:16;;;;;;;23.30;15.83;;;;;;;13.98;29.37;98406.19;1751794;81;20952;-79
2022/03/22 12:05:42;;;;;;;20.40;16.10;;;;;;;13.98;30.15;98406.19;1755999;81;21013;-79
2022/03/22 12:08:15;;;;;;;20.50;16.12;;;;;;;14.02;30.06;98406.23;1756711;81;21445;-80
2022/03/22 12:10:50;;;;;;;18.65;14.28;;;;;;;14.06;30.18;98396.29;1703715;83;20981;-80